createdAt,value
2023-02-11T00:01:24.920Z,33.60
2023-02-11T00:04:30.509Z,33.27
2023-02-11T00:07:35.103Z,32.93
2023-02-11T00:10:39.605Z,33.70
2023-02-11T00:13:46.373Z,32.20
2023-02-11T00:16:49.550Z,30.60
2023-02-11T00:19:53.594Z,32.53
2023-02-11T00:22:56.944Z,32.53
2023-02-11T00:26:02.042Z,33.23
2023-02-11T00:29:06.506Z,33.77
2023-02-11T00:32:10.992Z,33.53
2023-02-11T00:35:17.225Z,31.90
2023-02-11T00:38:20.854Z,32.30
2023-02-11T00:41:29.591Z,33.27
2023-02-11T00:44:35.647Z,32.40
2023-02-11T00:47:38.833Z,31.53
2023-02-11T00:50:42.222Z,32.63
2023-02-11T00:53:47.617Z,31.97
2023-02-11T00:56:55.138Z,33.47
2023-02-11T01:00:01.000Z,32.87
2023-02-11T01:03:04.433Z,32.43
2023-02-11T01:06:10.365Z,32.53
2023-02-11T01:09:21.130Z,32.27
2023-02-11T01:12:25.713Z,33.43
2023-02-11T01:15:29.795Z,31.30
2023-02-11T01:18:32.963Z,30.93
2023-02-11T01:21:38.715Z,29.93
2023-02-11T01:24:41.902Z,31.07
2023-02-11T01:27:46.515Z,32.93
2023-02-11T01:30:49.934Z,30.53
2023-02-11T01:33:53.308Z,31.87
2023-02-11T01:37:07.021Z,32.17
2023-02-11T01:40:18.146Z,30.70
2023-02-11T01:43:23.634Z,31.47
2023-02-11T01:46:33.848Z,30.70
2023-02-11T01:49:41.962Z,32.33
2023-02-11T01:52:46.301Z,32.00
2023-02-11T01:56:21.736Z,31.93
2023-02-11T01:59:35.708Z,32.47
2023-02-11T02:02:45.631Z,30.27
2023-02-11T02:05:54.633Z,32.30
2023-02-11T02:09:03.731Z,32.43
2023-02-11T02:12:07.201Z,31.83
2023-02-11T02:15:28.198Z,31.37
2023-02-11T02:18:42.406Z,31.20
2023-02-11T02:22:18.959Z,30.07
2023-02-11T02:25:44.069Z,30.23
2023-02-11T02:29:24.297Z,30.07
2023-02-11T02:33:02.225Z,31.87
2023-02-11T02:36:21.733Z,33.17
2023-02-11T02:39:28.997Z,32.17
2023-02-11T02:42:33.368Z,33.23
2023-02-11T02:45:38.993Z,30.40
2023-02-11T02:48:44.240Z,31.30
2023-02-11T02:52:16.575Z,32.80
2023-02-11T02:55:39.622Z,32.67
2023-02-11T02:59:05.250Z,29.57
2023-02-11T03:02:16.487Z,32.07
2023-02-11T03:05:32.365Z,35.17
2023-02-11T03:08:42.665Z,32.87
2023-02-11T03:11:48.540Z,30.53
2023-02-11T03:14:53.442Z,34.40
2023-02-11T03:18:01.544Z,34.70
2023-02-11T03:21:09.639Z,33.03
2023-02-11T03:24:22.606Z,34.23
2023-02-11T03:27:35.516Z,32.67
2023-02-11T03:30:46.697Z,35.50
2023-02-11T03:33:58.322Z,35.00
2023-02-11T03:37:09.112Z,34.50
2023-02-11T03:40:17.129Z,36.77
2023-02-11T03:43:24.403Z,35.57
2023-02-11T03:46:33.807Z,34.50
2023-02-11T03:49:39.689Z,34.97
2023-02-11T03:52:46.048Z,34.27
2023-02-11T03:55:52.366Z,34.80
2023-02-11T03:58:58.177Z,37.73
2023-02-11T04:02:08.629Z,35.20
2023-02-11T04:05:18.876Z,36.57
2023-02-11T04:08:23.715Z,36.50
2023-02-11T04:11:27.115Z,35.73
2023-02-11T04:14:32.641Z,36.33
2023-02-11T04:17:36.932Z,35.07
2023-02-11T04:20:40.272Z,38.37
2023-02-11T04:23:44.839Z,38.00
2023-02-11T04:26:48.302Z,36.63
2023-02-11T04:29:54.252Z,37.37
2023-02-11T04:32:59.165Z,37.80
2023-02-11T04:36:02.574Z,39.03
2023-02-11T04:39:08.670Z,37.33
2023-02-11T04:42:12.390Z,38.80
2023-02-11T04:45:16.567Z,35.63
2023-02-11T04:48:21.851Z,38.07
2023-02-11T04:51:25.999Z,41.33
2023-02-11T04:54:30.797Z,41.73
2023-02-11T04:57:36.848Z,40.33
2023-02-11T05:00:40.033Z,40.67
2023-02-11T05:03:44.453Z,40.50
2023-02-11T05:06:50.464Z,41.17
2023-02-11T05:09:55.524Z,41.03
2023-02-11T05:12:59.084Z,40.37
2023-02-11T05:16:02.298Z,43.33
2023-02-11T05:19:05.796Z,41.07
2023-02-11T05:22:11.925Z,41.80
2023-02-11T05:25:16.715Z,43.10
2023-02-11T05:28:22.291Z,44.30
2023-02-11T05:31:25.563Z,42.20
2023-02-11T05:34:29.126Z,42.27
2023-02-11T05:37:33.179Z,42.83
2023-02-11T05:40:39.620Z,42.47
2023-02-11T05:43:42.889Z,42.20
2023-02-11T05:46:49.329Z,42.17
2023-02-11T05:49:53.647Z,43.40
2023-02-11T05:52:57.471Z,43.70
2023-02-11T05:56:03.188Z,43.60
2023-02-11T05:59:10.962Z,43.77
2023-02-11T06:02:14.587Z,45.63
2023-02-11T06:05:18.164Z,43.70
2023-02-11T06:08:24.485Z,46.30
2023-02-11T06:11:29.003Z,47.97
2023-02-11T06:14:34.195Z,47.87
2023-02-11T06:17:40.872Z,47.33
2023-02-11T06:20:45.481Z,46.80
2023-02-11T06:23:49.219Z,47.60
2023-02-11T06:26:56.338Z,46.00
2023-02-11T06:29:59.444Z,46.93
2023-02-11T06:33:02.661Z,46.47
2023-02-11T06:36:14.924Z,47.33
2023-02-11T06:39:18.192Z,49.67
2023-02-11T06:42:22.634Z,48.57
2023-02-11T06:45:25.863Z,48.87
2023-02-11T06:48:29.215Z,50.77
2023-02-11T06:51:32.491Z,51.33
2023-02-11T06:54:35.829Z,51.77
2023-02-11T06:57:40.600Z,53.27
2023-02-11T07:00:43.769Z,49.93
2023-02-11T07:03:47.062Z,50.97
2023-02-11T07:06:50.238Z,52.33
2023-02-11T07:09:53.470Z,46.67
2023-02-11T07:12:58.897Z,50.10
2023-02-11T07:16:11.207Z,49.73
2023-02-11T07:19:14.961Z,51.87
2023-02-11T07:22:18.193Z,51.17
2023-02-11T07:25:21.600Z,51.00
2023-02-11T07:28:26.299Z,49.70
2023-02-11T07:31:31.321Z,49.53
2023-02-11T07:34:34.591Z,50.20
2023-02-11T07:37:38.186Z,49.20
2023-02-11T07:40:41.473Z,48.63
2023-02-11T07:43:47.105Z,48.73
2023-02-11T07:46:50.765Z,47.40
2023-02-11T07:49:56.569Z,51.73
2023-02-11T07:53:00.153Z,47.23
2023-02-11T07:56:05.674Z,48.63
2023-02-11T07:59:13.921Z,50.40
2023-02-11T08:02:19.250Z,49.90
2023-02-11T08:05:22.433Z,46.83
2023-02-11T08:08:28.323Z,47.73
2023-02-11T08:11:34.864Z,48.73
2023-02-11T08:14:39.698Z,46.57
2023-02-11T08:17:42.956Z,46.43
2023-02-11T08:20:46.200Z,48.40
2023-02-11T08:23:49.834Z,45.90
2023-02-11T08:26:53.263Z,48.23
2023-02-11T08:30:01.990Z,49.07
2023-02-11T08:33:05.241Z,44.73
2023-02-11T08:36:10.969Z,47.37
2023-02-11T08:39:20.256Z,45.27
2023-02-11T08:42:24.099Z,47.57
2023-02-11T08:45:30.779Z,48.07
2023-02-11T08:48:33.994Z,47.30
2023-02-11T08:51:37.780Z,46.83
2023-02-11T08:54:41.038Z,47.33
2023-02-11T08:57:47.013Z,46.40
2023-02-11T09:00:56.045Z,46.03
2023-02-11T09:03:59.735Z,44.93
2023-02-11T09:07:02.917Z,44.37
2023-02-11T09:10:07.300Z,46.50
2023-02-11T09:13:11.435Z,44.30
2023-02-11T09:16:25.137Z,45.10
2023-02-11T09:19:30.623Z,43.97
2023-02-11T09:22:35.439Z,41.07
2023-02-11T09:25:40.727Z,43.17
2023-02-11T09:28:44.696Z,43.73
2023-02-11T09:31:49.912Z,42.23
2023-02-11T09:34:53.655Z,41.13
2023-02-11T09:37:56.853Z,40.40
2023-02-11T09:41:04.107Z,43.97
2023-02-11T09:44:10.642Z,44.20
2023-02-11T09:47:27.010Z,44.50
2023-02-11T09:50:35.064Z,43.67
2023-02-11T09:53:43.554Z,42.90
2023-02-11T09:56:46.658Z,43.90
2023-02-11T09:59:51.590Z,44.77
2023-02-11T10:03:23.176Z,42.93
2023-02-11T10:06:40.885Z,43.53
2023-02-11T10:10:12.081Z,40.90
2023-02-11T10:13:42.162Z,43.63
2023-02-11T10:17:02.428Z,42.43
2023-02-11T10:20:24.837Z,43.00
2023-02-11T10:23:32.706Z,41.77
2023-02-11T10:26:53.134Z,41.00
2023-02-11T10:30:02.723Z,41.17
2023-02-11T10:33:15.138Z,41.60
2023-02-11T10:36:23.932Z,41.43
2023-02-11T10:39:28.564Z,44.23
2023-02-11T10:42:32.375Z,45.63
2023-02-11T10:45:43.850Z,43.67
2023-02-11T10:48:51.748Z,41.87
2023-02-11T10:52:21.999Z,41.93
2023-02-11T10:55:28.761Z,43.50
2023-02-11T10:58:45.802Z,45.57
2023-02-11T11:01:54.534Z,41.90
2023-02-11T11:05:07.616Z,44.33
2023-02-11T11:08:13.283Z,42.47
2023-02-11T11:11:18.926Z,42.13
2023-02-11T11:14:29.666Z,41.07
2023-02-11T11:17:32.789Z,43.07
2023-02-11T11:20:57.341Z,42.83
2023-02-11T11:24:04.412Z,44.70
2023-02-11T11:27:08.942Z,40.27
2023-02-11T11:30:18.230Z,41.67
2023-02-11T11:33:24.432Z,42.80
2023-02-11T11:36:38.658Z,38.67
2023-02-11T11:39:43.456Z,39.73
2023-02-11T11:42:46.516Z,41.37
2023-02-11T11:45:58.709Z,39.57
2023-02-11T11:49:14.786Z,37.60
2023-02-11T11:52:28.669Z,38.43
2023-02-11T11:55:40.035Z,37.83
2023-02-11T11:58:45.733Z,38.53
2023-02-11T12:02:12.974Z,37.23
2023-02-11T12:05:25.312Z,36.67
2023-02-11T12:08:45.420Z,34.73
2023-02-11T12:12:32.184Z,35.80
2023-02-11T12:15:45.124Z,33.10
2023-02-11T12:19:26.799Z,32.77
2023-02-11T12:22:43.119Z,31.30
2023-02-11T12:25:55.359Z,31.47
2023-02-11T12:29:23.401Z,32.83
2023-02-11T12:32:37.302Z,31.90
2023-02-11T12:35:56.146Z,32.50
2023-02-11T12:39:22.047Z,31.33
2023-02-11T12:43:03.269Z,32.10
2023-02-11T12:46:40.565Z,34.17
2023-02-11T12:50:06.158Z,32.80
2023-02-11T12:53:31.222Z,32.37
2023-02-11T12:56:41.193Z,29.77
2023-02-11T12:59:55.512Z,29.03
2023-02-11T13:03:12.796Z,29.90
2023-02-11T13:06:21.204Z,29.30
2023-02-11T13:09:29.755Z,28.87
2023-02-11T13:12:52.180Z,31.03
2023-02-11T13:16:01.248Z,29.53
2023-02-11T13:19:18.471Z,29.40
2023-02-11T13:22:30.936Z,30.07
2023-02-11T13:25:42.008Z,29.13
2023-02-11T13:28:54.110Z,28.87
2023-02-11T13:32:08.271Z,29.67
2023-02-11T13:35:34.051Z,28.70
2023-02-11T13:38:37.897Z,28.33
2023-02-11T13:41:45.077Z,27.67
2023-02-11T13:44:51.042Z,29.23
2023-02-11T13:48:03.299Z,30.13
2023-02-11T13:51:14.405Z,28.50
2023-02-11T13:55:04.685Z,31.43
2023-02-11T13:58:40.488Z,30.50
2023-02-11T14:02:40.904Z,28.97
2023-02-11T14:06:42.587Z,30.07
2023-02-11T14:09:53.457Z,28.60
2023-02-11T14:13:25.062Z,30.87
2023-02-11T14:16:39.546Z,27.93
2023-02-11T14:19:45.251Z,29.57
2023-02-11T14:22:52.735Z,27.33
2023-02-11T14:26:24.532Z,26.13
2023-02-11T14:29:38.229Z,25.47
2023-02-11T14:33:28.776Z,24.47
2023-02-11T14:37:27.888Z,25.50
2023-02-11T14:40:45.360Z,24.50
2023-02-11T14:43:56.509Z,24.20
2023-02-11T14:47:00.593Z,23.27
2023-02-11T14:50:04.202Z,24.90
2023-02-11T14:53:15.320Z,24.13
2023-02-11T14:56:24.825Z,24.13
2023-02-11T14:59:28.054Z,24.77
2023-02-11T15:02:36.305Z,24.20
2023-02-11T15:05:39.556Z,23.97
2023-02-11T15:08:48.718Z,23.47
2023-02-11T15:11:55.250Z,23.27
2023-02-11T15:15:04.737Z,24.77
2023-02-11T15:18:09.654Z,25.93
2023-02-11T15:21:12.946Z,25.93
2023-02-11T15:24:27.185Z,27.40
2023-02-11T15:27:41.100Z,23.90
2023-02-11T15:30:47.240Z,24.53
2023-02-11T15:33:51.303Z,25.23
2023-02-11T15:37:01.686Z,25.87
2023-02-11T15:40:15.132Z,26.63
2023-02-11T15:43:20.013Z,24.73
2023-02-11T15:46:24.662Z,23.97
2023-02-11T15:49:28.302Z,24.10
2023-02-11T15:52:32.570Z,22.37
2023-02-11T15:55:36.801Z,23.43
2023-02-11T16:02:18.569Z,19.17
2023-02-11T16:05:32.321Z,20.47
2023-02-11T16:08:37.641Z,18.80
2023-02-11T16:11:58.364Z,20.27
2023-02-11T16:16:31.749Z,17.07
2023-02-11T16:19:45.486Z,16.93
2023-02-11T16:22:49.362Z,16.90
2023-02-11T16:26:00.648Z,17.63
2023-02-11T16:29:11.318Z,15.20
2023-02-11T16:32:20.043Z,16.73
2023-02-11T16:35:27.255Z,17.13
2023-02-11T16:38:34.136Z,16.57
2023-02-11T16:41:37.829Z,15.53
2023-02-11T16:44:41.380Z,17.33
2023-02-11T16:47:44.876Z,15.70
2023-02-11T16:50:53.417Z,16.13
2023-02-11T16:53:57.173Z,15.23
2023-02-11T16:57:00.764Z,15.97
2023-02-11T17:00:06.416Z,14.57
2023-02-11T17:03:11.904Z,14.40
2023-02-11T17:06:19.600Z,13.63
2023-02-11T17:09:32.657Z,16.70
2023-02-11T17:12:35.888Z,19.23
2023-02-11T17:15:40.910Z,18.87
2023-02-11T17:18:44.314Z,17.23
2023-02-11T17:21:51.656Z,17.20
2023-02-11T17:24:58.852Z,17.30
2023-02-11T17:28:03.047Z,16.57
2023-02-11T17:31:09.838Z,14.90
2023-02-11T17:34:13.435Z,16.00
2023-02-11T17:37:18.638Z,18.13
2023-02-11T17:40:22.353Z,21.33
2023-02-11T17:43:25.740Z,14.93
2023-02-11T17:46:33.062Z,15.87
2023-02-11T17:49:36.326Z,16.07
2023-02-11T17:52:41.808Z,14.37
2023-02-11T17:55:45.218Z,15.13
2023-02-11T17:58:48.391Z,14.67
2023-02-11T18:01:51.573Z,16.23
2023-02-11T18:04:57.498Z,14.47
2023-02-11T18:08:02.183Z,14.87
2023-02-11T18:11:13.055Z,13.40
2023-02-11T18:14:19.991Z,12.80
2023-02-11T18:17:27.011Z,13.27
2023-02-11T18:20:30.760Z,13.60
2023-02-11T18:23:36.070Z,13.83
2023-02-11T18:26:39.599Z,13.60
2023-02-11T18:29:45.948Z,12.63
2023-02-11T18:32:54.839Z,14.07
2023-02-11T18:36:08.874Z,11.97
2023-02-11T18:39:13.583Z,13.57
2023-02-11T18:43:00.163Z,16.07
2023-02-11T18:46:12.987Z,13.07
2023-02-11T18:49:17.043Z,14.07
2023-02-11T18:52:20.673Z,12.20
2023-02-11T18:55:30.748Z,11.10
2023-02-11T18:58:34.533Z,12.50
2023-02-11T19:01:41.021Z,13.63
2023-02-11T19:04:48.062Z,12.27
2023-02-11T19:07:58.039Z,13.60
2023-02-11T19:11:06.795Z,13.10
2023-02-11T19:14:11.200Z,13.03
2023-02-11T19:17:15.318Z,13.33
2023-02-11T19:20:21.335Z,12.03
2023-02-11T19:23:30.347Z,12.90
2023-02-11T19:26:40.191Z,12.30
2023-02-11T19:29:51.033Z,13.03
2023-02-11T19:32:57.915Z,13.97
2023-02-11T19:36:06.219Z,13.57
2023-02-11T19:39:10.033Z,11.80
2023-02-11T19:42:16.205Z,12.33
2023-02-11T19:45:19.559Z,13.20
2023-02-11T19:48:23.205Z,13.63
2023-02-11T19:51:31.047Z,12.67
2023-02-11T19:54:37.853Z,14.43
2023-02-11T19:57:42.783Z,13.60
2023-02-11T20:00:46.520Z,13.67
2023-02-11T20:03:56.629Z,13.90
2023-02-11T20:07:03.385Z,13.60
2023-02-11T20:10:09.144Z,14.40
2023-02-11T20:13:13.743Z,13.63
2023-02-11T20:16:25.357Z,14.47
2023-02-11T20:19:32.501Z,14.77
2023-02-11T20:22:38.934Z,14.87
2023-02-11T20:30:42.598Z,13.40
2023-02-11T20:33:52.799Z,13.37
2023-02-11T20:36:56.529Z,13.33
2023-02-11T20:39:59.974Z,13.47
2023-02-11T20:43:03.267Z,13.83
2023-02-11T20:46:09.481Z,12.83
2023-02-11T20:49:13.935Z,14.23
2023-02-11T20:52:19.658Z,13.20
2023-02-11T20:55:26.649Z,14.43
2023-02-11T20:58:32.828Z,12.27
2023-02-11T21:01:42.184Z,12.87
2023-02-11T21:04:45.842Z,12.33
2023-02-11T21:07:49.693Z,12.17
2023-02-11T21:10:53.604Z,11.27
2023-02-11T21:14:02.415Z,11.60
2023-02-11T21:17:07.607Z,11.40
2023-02-11T21:20:11.892Z,12.83
2023-02-11T21:23:14.950Z,11.87
2023-02-11T21:26:18.220Z,12.70
2023-02-11T21:29:21.589Z,12.40
2023-02-11T21:32:26.171Z,11.27
2023-02-11T21:35:29.320Z,12.33
2023-02-11T21:38:36.966Z,10.87
2023-02-11T21:41:40.672Z,10.43
2023-02-11T21:44:44.057Z,10.97
2023-02-11T21:47:48.940Z,10.03
2023-02-11T21:50:53.753Z,9.63
2023-02-11T21:53:58.915Z,10.57
2023-02-11T21:57:03.118Z,12.27
2023-02-11T22:00:08.974Z,11.47
2023-02-11T22:03:16.382Z,10.63
2023-02-11T22:06:22.257Z,11.17
2023-02-11T22:09:25.610Z,11.27
2023-02-11T22:12:28.696Z,10.47
2023-02-11T22:15:31.997Z,11.07
2023-02-11T22:18:37.251Z,10.03
2023-02-11T22:21:43.094Z,10.63
2023-02-11T22:24:46.757Z,10.10
2023-02-11T22:27:50.050Z,10.43
2023-02-11T22:30:57.703Z,9.70
2023-02-11T22:34:06.852Z,12.20
2023-02-11T22:37:10.165Z,11.50
2023-02-11T22:40:14.750Z,10.83
2023-02-11T22:43:17.996Z,11.20
2023-02-11T22:46:22.073Z,11.67
2023-02-11T22:49:26.896Z,11.10
2023-02-11T22:52:30.086Z,10.10
2023-02-11T22:55:46.369Z,12.13
2023-02-11T22:58:51.997Z,11.03
2023-02-11T23:01:55.370Z,11.87
2023-02-11T23:05:00.174Z,12.87
2023-02-11T23:08:04.601Z,11.53
2023-02-11T23:11:11.284Z,12.27
2023-02-11T23:14:14.648Z,12.67
2023-02-11T23:17:19.526Z,13.13
2023-02-11T23:20:24.176Z,13.97
2023-02-11T23:23:27.427Z,13.00
2023-02-11T23:26:31.339Z,13.53
2023-02-11T23:29:34.892Z,13.27
2023-02-11T23:32:39.770Z,12.97
2023-02-11T23:35:54.114Z,14.03
2023-02-11T23:38:58.087Z,13.07
2023-02-11T23:42:01.191Z,14.03
2023-02-11T23:45:05.565Z,14.00
2023-02-11T23:48:11.661Z,14.43
2023-02-11T23:51:16.435Z,14.83
2023-02-11T23:54:19.436Z,14.90
2023-02-11T23:57:22.479Z,13.53
